Time;durP1;ratioP1;P1;durP2;ratioP2;P2;SDS_P1;SDS_P2;PMS_P1;PMS_P2;Temp;Humidity;BMP_temperature;BMP_pressure;BME280_temperature;BME280_humidity;BME280_pressure;Samples;Min_cycle;Max_cycle;Signal;HPM_P1;HPM_P2
2023/09/29 00:01:32;;;;;;;12.90;6.38;;;24.80;67.20;;;;;;7678356;22;80337;-59
2023/09/29 00:04:33;;;;;;;9.90;6.20;;;24.80;67.10;;;;;;7678218;22;80407;-59
2023/09/29 00:07:33;;;;;;;6.30;5.60;;;24.80;67.00;;;;;;7677760;22;80323;-58
2023/09/29 00:10:34;;;;;;;8.25;6.10;;;24.80;66.90;;;;;;7677549;22;80781;-57
2023/09/29 00:13:35;;;;;;;11.93;5.60;;;24.80;66.90;;;;;;7677643;22;80593;-59
2023/09/29 00:16:35;;;;;;;7.13;5.68;;;24.80;66.80;;;;;;7677885;22;80504;-59
2023/09/29 00:19:36;;;;;;;6.65;5.32;;;24.80;66.70;;;;;;7651152;22;80530;-59
2023/09/29 00:22:37;;;;;;;9.13;5.68;;;24.80;66.70;;;;;;7678368;22;80469;-59
2023/09/29 00:25:38;;;;;;;10.13;5.85;;;24.80;66.70;;;;;;7677020;22;80280;-59
2023/09/29 00:28:38;;;;;;;8.93;5.95;;;24.70;66.60;;;;;;7678148;22;80428;-59
2023/09/29 00:31:39;;;;;;;8.13;5.60;;;24.70;66.60;;;;;;7680906;22;80802;-59
2023/09/29 00:34:39;;;;;;;6.95;5.93;;;24.70;66.50;;;;;;7654760;22;82886;-59
2023/09/29 00:37:40;;;;;;;7.18;5.53;;;24.70;66.50;;;;;;7681303;22;80814;-60
2023/09/29 00:40:40;;;;;;;8.63;6.18;;;24.70;66.50;;;;;;7682401;22;80137;-60
2023/09/29 00:43:41;;;;;;;12.32;5.53;;;24.70;66.60;;;;;;7682124;22;80486;-60
2023/09/29 00:46:45;;;;;;;7.95;5.53;;;24.70;66.50;;;;;;7655396;22;81437;-60
2023/09/29 00:49:48;;;;;;;8.95;5.47;;;24.70;66.50;;;;;;7655470;22;81264;-60
2023/09/29 00:52:49;;;;;;;8.93;6.00;;;24.70;66.50;;;;;;7682463;22;80914;-60
2023/09/29 00:55:50;;;;;;;6.82;5.35;;;24.70;66.40;;;;;;7681718;22;80246;-60
2023/09/29 00:58:51;;;;;;;8.18;5.45;;;24.80;66.50;;;;;;7681880;22;80752;-60
2023/09/29 01:01:52;;;;;;;8.68;5.20;;;24.70;66.40;;;;;;7654504;22;83066;-60
2023/09/29 01:04:53;;;;;;;6.85;5.65;;;24.70;66.30;;;;;;7681986;22;80831;-60
2023/09/29 01:07:53;;;;;;;9.57;5.82;;;24.70;66.20;;;;;;7682699;22;80295;-60
2023/09/29 01:10:54;;;;;;;8.50;5.05;;;24.70;66.20;;;;;;7654933;22;83650;-61
2023/09/29 01:13:56;;;;;;;9.75;5.57;;;24.70;66.10;;;;;;7654155;22;82735;-50
2023/09/29 01:16:56;;;;;;;6.88;5.50;;;24.70;66.10;;;;;;7653683;22;81300;-49
2023/09/29 01:19:57;;;;;;;7.70;4.82;;;24.70;66.10;;;;;;7681566;22;80606;-48
2023/09/29 01:22:57;;;;;;;10.45;6.00;;;24.70;66.00;;;;;;7654106;22;81873;-50
2023/09/29 01:25:58;;;;;;;7.55;5.95;;;24.70;66.00;;;;;;7654042;22;83763;-51
2023/09/29 01:28:58;;;;;;;8.05;5.32;;;24.70;66.00;;;;;;7680944;22;81227;-49
2023/09/29 01:31:59;;;;;;;7.88;5.53;;;24.70;65.90;;;;;;7654106;22;82949;-47
2023/09/29 01:35:01;;;;;;;6.82;5.65;;;24.70;66.00;;;;;;7680568;22;83206;-55
2023/09/29 01:38:02;;;;;;;6.63;4.78;;;24.60;66.50;;;;;;7681542;22;80308;-56
2023/09/29 01:41:02;;;;;;;9.15;5.32;;;24.60;65.70;;;;;;7653369;22;83389;-59
2023/09/29 01:44:03;;;;;;;7.30;5.15;;;24.70;65.80;;;;;;7651842;22;83067;-59
2023/09/29 01:47:03;;;;;;;8.63;5.65;;;24.70;65.80;;;;;;7679191;22;80689;-60
2023/09/29 01:50:04;;;;;;;10.63;5.38;;;24.60;65.60;;;;;;7679231;22;80528;-60
2023/09/29 01:53:06;;;;;;;9.88;5.15;;;24.60;65.70;;;;;;7651667;22;83275;-50
2023/09/29 01:56:07;;;;;;;7.60;5.28;;;24.60;65.50;;;;;;7652758;22;83098;-48
2023/09/29 01:59:08;;;;;;;7.95;5.40;;;24.60;65.50;;;;;;7646176;22;82026;-47
2023/09/29 02:02:09;;;;;;;6.55;4.97;;;24.60;65.50;;;;;;7651174;22;83634;-46
2023/09/29 02:05:10;;;;;;;6.95;5.28;;;24.60;65.40;;;;;;7679269;22;80638;-46
2023/09/29 02:08:11;;;;;;;5.47;4.63;;;24.60;65.40;;;;;;7677757;22;80481;-47
2023/09/29 02:11:12;;;;;;;5.75;4.75;;;24.60;65.30;;;;;;7652216;22;80758;-48
2023/09/29 02:14:13;;;;;;;8.05;5.20;;;24.60;65.30;;;;;;7651664;22;82516;-49
2023/09/29 02:17:13;;;;;;;12.88;5.97;;;24.60;65.30;;;;;;7651171;22;83091;-49
2023/09/29 02:20:15;;;;;;;7.53;5.50;;;24.60;65.40;;;;;;7652856;22;83529;-47
2023/09/29 02:23:16;;;;;;;9.10;4.97;;;24.60;65.30;;;;;;7677505;22;82977;-47
2023/09/29 02:26:17;;;;;;;7.10;4.55;;;24.60;65.20;;;;;;7676229;22;83108;-45
2023/09/29 02:29:17;;;;;;;6.93;5.25;;;24.50;65.00;;;;;;7651766;22;80455;-59
2023/09/29 02:32:18;;;;;;;9.57;5.35;;;24.60;65.20;;;;;;7678557;22;80255;-48
2023/09/29 02:35:18;;;;;;;6.20;5.25;;;24.60;65.20;;;;;;7679122;22;81327;-46
2023/09/29 02:38:19;;;;;;;9.60;5.07;;;24.50;65.00;;;;;;7678943;22;81492;-48
2023/09/29 02:41:21;;;;;;;9.00;5.50;;;24.50;65.00;;;;;;7679497;22;79936;-48
2023/09/29 02:44:22;;;;;;;9.82;5.68;;;24.50;65.00;;;;;;7677641;22;83396;-47
2023/09/29 02:47:22;;;;;;;6.93;4.95;;;24.50;65.00;;;;;;7679470;22;80320;-57
2023/09/29 02:50:24;;;;;;;8.27;5.63;;;24.50;64.90;;;;;;7679171;22;81239;-57
2023/09/29 02:53:25;;;;;;;7.10;5.55;;;24.50;64.90;;;;;;7678197;22;80743;-58
2023/09/29 02:56:26;;;;;;;8.75;5.93;;;24.50;64.80;;;;;;7678940;22;80776;-57
2023/09/29 02:59:26;;;;;;;8.85;6.15;;;24.50;64.70;;;;;;7679547;22;80501;-58
2023/09/29 03:02:27;;;;;;;8.38;5.90;;;24.40;64.70;;;;;;7676305;22;81107;-58
2023/09/29 03:05:28;;;;;;;7.82;5.63;;;24.40;64.60;;;;;;7678501;22;81657;-50
2023/09/29 03:08:29;;;;;;;8.48;5.65;;;24.40;64.70;;;;;;7678833;22;80531;-50
2023/09/29 03:11:29;;;;;;;8.02;5.80;;;24.50;64.60;;;;;;7678275;22;81017;-48
2023/09/29 03:14:30;;;;;;;8.57;5.32;;;24.50;64.60;;;;;;7677747;22;80850;-46
2023/09/29 03:17:31;;;;;;;10.13;6.07;;;24.40;64.30;;;;;;7675750;22;81634;-48
2023/09/29 03:20:32;;;;;;;9.02;6.35;;;24.50;64.30;;;;;;7678314;22;80487;-50
2023/09/29 03:23:33;;;;;;;8.85;5.65;;;24.40;64.20;;;;;;7678380;22;80659;-46
2023/09/29 03:26:34;;;;;;;9.38;6.18;;;24.40;64.20;;;;;;7677075;22;80256;-51
2023/09/29 03:29:35;;;;;;;9.50;6.10;;;24.40;64.20;;;;;;7678632;22;80094;-51
2023/09/29 03:32:35;;;;;;;8.35;6.15;;;24.40;64.00;;;;;;7674618;22;80312;-51
2023/09/29 03:35:36;;;;;;;8.30;5.63;;;24.50;64.70;;;;;;7679116;22;80558;-53
2023/09/29 03:38:37;;;;;;;8.15;5.53;;;24.50;64.70;;;;;;7678777;22;80687;-52
2023/09/29 03:41:38;;;;;;;7.53;5.40;;;24.50;64.40;;;;;;7679545;22;80513;-60
2023/09/29 03:44:38;;;;;;;7.78;5.32;;;24.50;64.50;;;;;;7678854;22;81450;-51
2023/09/29 03:47:39;;;;;;;7.68;5.35;;;24.50;64.60;;;;;;7678372;22;80682;-52
2023/09/29 03:50:39;;;;;;;6.60;5.00;;;24.50;64.70;;;;;;7677095;22;80206;-51
2023/09/29 03:53:40;;;;;;;8.43;5.22;;;24.50;64.70;;;;;;7678496;22;80564;-53
2023/09/29 03:56:41;;;;;;;7.38;4.97;;;24.50;64.80;;;;;;7677613;22;80602;-52
2023/09/29 03:59:42;;;;;;;7.15;4.50;;;24.50;64.80;;;;;;7678516;22;81012;-48
2023/09/29 04:02:43;;;;;;;8.15;4.85;;;24.50;64.80;;;;;;7677206;22;80134;-50
2023/09/29 04:05:43;;;;;;;7.07;5.18;;;24.50;65.00;;;;;;7676735;22;80742;-51
2023/09/29 04:08:44;;;;;;;7.57;5.05;;;24.50;64.90;;;;;;7678158;22;80772;-47
2023/09/29 04:11:44;;;;;;;7.03;4.88;;;24.50;64.90;;;;;;7676528;22;80639;-47
2023/09/29 04:14:45;;;;;;;6.20;4.18;;;24.50;65.00;;;;;;7678296;22;80819;-50
2023/09/29 04:17:45;;;;;;;6.47;4.85;;;24.50;65.00;;;;;;7678068;22;80658;-53
2023/09/29 04:20:46;;;;;;;6.22;4.60;;;24.50;64.90;;;;;;7678317;22;80521;-49
2023/09/29 04:23:47;;;;;;;6.63;4.90;;;24.50;65.50;;;;;;7678827;22;81037;-50
2023/09/29 04:26:48;;;;;;;8.35;4.45;;;24.60;65.50;;;;;;7675706;22;81710;-49
2023/09/29 04:29:48;;;;;;;11.00;4.30;;;24.60;66.00;;;;;;7676825;22;80714;-49
2023/09/29 04:32:49;;;;;;;7.10;4.90;;;24.60;65.80;;;;;;7678255;22;80522;-50
2023/09/29 04:35:50;;;;;;;11.32;4.55;;;24.60;65.80;;;;;;7676088;22;81018;-51
2023/09/29 04:38:51;;;;;;;11.98;4.63;;;24.60;65.70;;;;;;7679067;22;80927;-56
2023/09/29 04:41:51;;;;;;;9.40;4.75;;;24.70;65.70;;;;;;7678444;22;80721;-53
2023/09/29 04:44:52;;;;;;;10.80;4.63;;;24.70;65.60;;;;;;7677172;22;81058;-51
2023/09/29 04:47:54;;;;;;;10.35;5.00;;;24.70;66.00;;;;;;7652021;22;80897;-47
2023/09/29 04:50:55;;;;;;;13.82;5.82;;;24.70;65.50;;;;;;7676979;22;80578;-49
2023/09/29 04:53:55;;;;;;;15.43;5.32;;;24.70;65.40;;;;;;7656035;22;80903;-55
2023/09/29 04:56:55;;;;;;;13.07;5.22;;;24.70;65.20;;;;;;7667878;22;81056;-48
2023/09/29 04:59:56;;;;;;;17.23;5.20;;;24.70;64.90;;;;;;7662175;22;80561;-47
2023/09/29 05:02:56;;;;;;;19.67;5.82;;;24.70;64.80;;;;;;7673712;22;80537;-48
2023/09/29 05:05:57;;;;;;;14.63;6.75;;;24.70;64.60;;;;;;7674461;22;81246;-48
2023/09/29 05:08:59;;;;;;;12.85;6.22;;;24.60;64.50;;;;;;7675803;22;81142;-47
2023/09/29 05:12:00;;;;;;;16.20;6.15;;;24.60;64.10;;;;;;7674575;22;80966;-46
2023/09/29 05:15:00;;;;;;;17.35;6.30;;;24.60;64.10;;;;;;7677027;22;87110;-58
2023/09/29 05:18:01;;;;;;;15.25;6.63;;;24.50;63.90;;;;;;7678411;22;82383;-57
2023/09/29 05:21:01;;;;;;;20.73;7.68;;;24.50;63.90;;;;;;7678511;22;80680;-58
2023/09/29 05:24:02;;;;;;;13.40;6.38;;;24.50;63.70;;;;;;7648576;22;81613;-56
2023/09/29 05:27:03;;;;;;;16.60;8.63;;;24.50;63.70;;;;;;7623520;22;82445;-57
2023/09/29 05:30:03;;;;;;;16.52;8.00;;;24.50;63.70;;;;;;7677059;22;80157;-57
2023/09/29 05:33:04;;;;;;;20.27;8.13;;;24.40;63.30;;;;;;7678535;22;80262;-56
2023/09/29 05:36:04;;;;;;;24.38;8.80;;;24.40;62.70;;;;;;7676935;22;80837;-55
2023/09/29 05:39:05;;;;;;;20.95;8.40;;;24.40;62.30;;;;;;7678511;22;80194;-59
2023/09/29 05:42:05;;;;;;;16.30;9.05;;;24.30;62.10;;;;;;7678078;22;80812;-53
2023/09/29 05:45:06;;;;;;;19.13;9.75;;;24.30;62.40;;;;;;7541119;22;81918;-54
2023/09/29 05:48:06;;;;;;;21.35;9.05;;;24.30;62.60;;;;;;7521430;22;81697;-54
2023/09/29 05:51:07;;;;;;;19.85;9.70;;;24.30;62.60;;;;;;7529260;22;82087;-53
2023/09/29 05:54:07;;;;;;;18.27;9.90;;;24.20;62.40;;;;;;7528566;22;82368;-56
2023/09/29 05:57:08;;;;;;;21.77;9.70;;;24.20;62.30;;;;;;7530463;22;82305;-60
2023/09/29 06:00:13;;;;;;;20.05;10.80;;;24.20;62.80;;;;;;7528009;22;81867;-55
2023/09/29 06:03:13;;;;;;;13.88;9.60;;;24.20;62.40;;;;;;7523482;22;83821;-53
2023/09/29 06:06:14;;;;;;;16.70;9.52;;;24.20;62.30;;;;;;7526308;22;81797;-53
2023/09/29 06:09:15;;;;;;;19.27;10.45;;;24.10;62.40;;;;;;7525689;22;81811;-54
2023/09/29 06:12:15;;;;;;;20.30;10.07;;;24.10;62.30;;;;;;7513762;22;89386;-56
2023/09/29 06:15:16;;;;;;;23.40;9.65;;;24.10;62.30;;;;;;7512688;22;85151;-55
2023/09/29 06:18:17;;;;;;;23.05;10.50;;;24.10;62.30;;;;;;7526654;22;85490;-55
2023/09/29 06:21:17;;;;;;;26.27;10.18;;;24.10;62.30;;;;;;7524667;22;84154;-54
2023/09/29 06:24:18;;;;;;;20.98;10.60;;;24.10;62.30;;;;;;7522723;22;84667;-53
2023/09/29 06:27:18;;;;;;;23.15;11.05;;;24.10;62.30;;;;;;7524903;22;84182;-52
2023/09/29 06:30:20;;;;;;;24.80;10.65;;;24.00;62.50;;;;;;7524380;22;84805;-56
2023/09/29 06:33:20;;;;;;;19.33;10.68;;;24.00;62.80;;;;;;7523854;22;84885;-55
2023/09/29 06:36:21;;;;;;;18.20;11.05;;;24.10;62.70;;;;;;7484928;22;86918;-56
2023/09/29 06:39:22;;;;;;;21.10;10.98;;;24.10;62.90;;;;;;7509511;22;84116;-56
2023/09/29 06:42:22;;;;;;;29.77;12.32;;;24.10;62.90;;;;;;7640837;22;84465;-56
2023/09/29 06:45:23;;;;;;;25.30;11.88;;;24.10;63.00;;;;;;7672338;22;83859;-61
2023/09/29 06:48:23;;;;;;;28.98;13.40;;;24.10;63.00;;;;;;7657904;22;83246;-58
2023/09/29 06:51:24;;;;;;;32.40;13.18;;;24.20;63.40;;;;;;7671863;22;83800;-57
2023/09/29 06:54:24;;;;;;;28.92;12.38;;;24.20;63.60;;;;;;7668853;22;83236;-59
2023/09/29 06:57:25;;;;;;;37.78;14.38;;;24.20;63.70;;;;;;7672904;22;83380;-58
2023/09/29 07:00:26;;;;;;;35.20;13.88;;;24.20;63.70;;;;;;7671321;22;83684;-57
2023/09/29 07:03:29;;;;;;;36.50;14.18;;;24.20;63.70;;;;;;7672795;22;83283;-58
2023/09/29 07:06:30;;;;;;;34.90;13.75;;;24.20;63.70;;;;;;7672358;22;82808;-58
2023/09/29 07:09:30;;;;;;;41.55;14.38;;;24.20;63.90;;;;;;7646073;22;84445;-58
2023/09/29 07:12:31;;;;;;;31.88;13.55;;;24.20;64.50;;;;;;7672842;22;83564;-58
2023/09/29 07:15:32;;;;;;;35.58;13.48;;;24.20;64.50;;;;;;7670359;22;83109;-59
2023/09/29 07:18:32;;;;;;;35.83;13.25;;;24.20;64.40;;;;;;7670570;22;83403;-58
2023/09/29 07:21:33;;;;;;;30.73;13.90;;;24.20;64.50;;;;;;7662958;22;82973;-55
2023/09/29 07:24:33;;;;;;;31.23;13.10;;;24.20;64.60;;;;;;7673395;22;83575;-54
2023/09/29 07:27:35;;;;;;;24.88;12.40;;;24.20;64.70;;;;;;7672743;22;82929;-56
2023/09/29 07:30:36;;;;;;;31.50;12.32;;;24.30;64.80;;;;;;7672061;22;83263;-55
2023/09/29 07:33:36;;;;;;;33.33;13.07;;;24.30;65.30;;;;;;7673127;22;83589;-55
2023/09/29 07:36:39;;;;;;;23.83;12.48;;;24.30;65.00;;;;;;7671931;22;82901;-54
2023/09/29 07:39:39;;;;;;;20.35;11.30;;;24.40;65.20;;;;;;7672191;22;83910;-47
2023/09/29 07:42:40;;;;;;;27.45;11.70;;;24.40;65.50;;;;;;7673973;22;83144;-47
2023/09/29 07:45:40;;;;;;;24.33;11.85;;;24.40;66.00;;;;;;7673658;22;83890;-49
2023/09/29 07:48:42;;;;;;;28.35;12.13;;;24.40;66.80;;;;;;7673572;22;83131;-46
2023/09/29 07:51:42;;;;;;;22.13;11.50;;;24.50;66.80;;;;;;7672207;22;83966;-51
2023/09/29 07:54:43;;;;;;;17.10;10.13;;;24.60;66.40;;;;;;7674041;22;83135;-50
2023/09/29 07:57:43;;;;;;;18.88;10.50;;;24.60;67.00;;;;;;7673715;22;82974;-51
2023/09/29 08:00:44;;;;;;;26.85;10.23;;;24.60;67.30;;;;;;7673427;22;83083;-49
2023/09/29 08:03:45;;;;;;;23.23;10.70;;;24.60;66.50;;;;;;7673525;22;82908;-46
2023/09/29 08:06:45;;;;;;;17.80;10.25;;;24.60;65.80;;;;;;7673514;22;84334;-51
2023/09/29 08:09:48;;;;;;;23.35;10.48;;;24.60;65.70;;;;;;7674233;22;82767;-48
2023/09/29 08:12:49;;;;;;;25.45;10.63;;;24.70;65.50;;;;;;7673060;22;83074;-48
2023/09/29 08:15:49;;;;;;;24.48;9.98;;;24.70;66.30;;;;;;7673410;22;83015;-47
2023/09/29 08:18:50;;;;;;;23.70;10.40;;;24.70;65.50;;;;;;7674059;22;83106;-59
2023/09/29 08:21:50;;;;;;;18.92;9.35;;;24.70;65.60;;;;;;7673273;22;83959;-60
2023/09/29 08:24:51;;;;;;;23.15;10.00;;;24.80;66.50;;;;;;7650742;22;83130;-61
2023/09/29 08:27:51;;;;;;;12.60;8.80;;;24.80;66.20;;;;;;7674232;22;83056;-61
2023/09/29 08:30:52;;;;;;;21.30;10.65;;;24.90;66.30;;;;;;7671813;22;83208;-60
2023/09/29 08:33:52;;;;;;;16.65;9.35;;;24.90;66.70;;;;;;7664211;22;84293;-61
2023/09/29 08:36:53;;;;;;;17.25;8.52;;;24.90;67.30;;;;;;7676923;22;82837;-61
2023/09/29 08:39:53;;;;;;;24.25;9.40;;;25.00;66.00;;;;;;7677015;22;80326;-61
2023/09/29 08:42:55;;;;;;;20.50;9.60;;;25.00;65.90;;;;;;7648613;22;81987;-61
2023/09/29 08:45:56;;;;;;;16.63;8.32;;;25.00;66.40;;;;;;7675308;22;80848;-61
2023/09/29 08:48:57;;;;;;;16.08;9.27;;;25.00;66.00;;;;;;7677886;22;80377;-60
2023/09/29 08:51:57;;;;;;;19.45;10.07;;;25.10;66.90;;;;;;7677668;22;81277;-59
2023/09/29 08:54:58;;;;;;;16.80;8.93;;;25.10;66.30;;;;;;7672516;22;82876;-58
2023/09/29 08:57:58;;;;;;;21.13;9.68;;;25.10;67.50;;;;;;7677754;22;82949;-58
2023/09/29 09:00:59;;;;;;;17.25;8.95;;;25.20;68.70;;;;;;7675396;22;81279;-58
2023/09/29 09:03:59;;;;;;;15.82;8.63;;;25.20;67.90;;;;;;7678127;22;80560;-59
2023/09/29 09:07:02;;;;;;;18.00;8.50;;;25.20;68.20;;;;;;7678731;22;80418;-60
2023/09/29 09:10:03;;;;;;;16.58;9.40;;;25.30;67.70;;;;;;7678394;22;82161;-58
2023/09/29 09:13:03;;;;;;;16.10;8.55;;;25.30;68.10;;;;;;7677950;22;80672;-48
2023/09/29 09:16:04;;;;;;;12.88;8.25;;;25.40;68.70;;;;;;7678227;22;81030;-46
2023/09/29 09:19:04;;;;;;;16.08;8.45;;;25.40;67.80;;;;;;7678283;22;80118;-47
2023/09/29 09:22:05;;;;;;;13.15;8.73;;;25.40;67.30;;;;;;7679112;22;80966;-52
2023/09/29 09:25:08;;;;;;;14.73;8.73;;;25.50;67.20;;;;;;7678646;22;80655;-47
2023/09/29 09:28:09;;;;;;;18.65;8.18;;;25.50;67.60;;;;;;7677944;22;81394;-46
2023/09/29 09:31:09;;;;;;;19.35;8.85;;;25.50;69.00;;;;;;7678378;22;80497;-55
2023/09/29 09:34:10;;;;;;;17.23;8.88;;;25.60;68.40;;;;;;7677690;22;80883;-56
2023/09/29 09:37:12;;;;;;;14.75;9.50;;;25.60;68.20;;;;;;7675967;22;81036;-56
2023/09/29 09:40:13;;;;;;;20.88;12.05;;;25.70;66.70;;;;;;7678590;22;80304;-55
2023/09/29 09:43:13;;;;;;;18.80;11.20;;;25.70;67.10;;;;;;7674608;22;83012;-55
2023/09/29 09:46:14;;;;;;;21.90;12.07;;;25.80;66.80;;;;;;7675134;22;84997;-52
2023/09/29 09:49:15;;;;;;;19.65;12.80;;;25.90;66.90;;;;;;7674487;22;83669;-53
2023/09/29 09:52:15;;;;;;;25.25;14.15;;;25.90;65.50;;;;;;7674540;22;83437;-49
2023/09/29 09:55:16;;;;;;;21.23;13.23;;;25.90;65.70;;;;;;7674985;22;83452;-45
2023/09/29 09:58:20;;;;;;;23.40;13.75;;;25.90;65.30;;;;;;7674595;22;84319;-54
2023/09/29 10:01:21;;;;;;;19.95;13.27;;;25.90;65.70;;;;;;7674749;22;83205;-51
2023/09/29 10:04:21;;;;;;;19.95;11.63;;;26.00;64.60;;;;;;7673983;22;83040;-49
2023/09/29 10:07:22;;;;;;;25.90;11.55;;;26.10;63.90;;;;;;7675007;22;83343;-48
2023/09/29 10:10:23;;;;;;;18.00;11.15;;;26.20;63.80;;;;;;7673940;22;84018;-55
2023/09/29 10:13:23;;;;;;;16.55;10.15;;;26.20;63.80;;;;;;7673749;22;82985;-53
2023/09/29 10:16:24;;;;;;;16.08;9.07;;;26.20;62.00;;;;;;7674272;22;82949;-54
2023/09/29 10:19:25;;;;;;;21.55;7.82;;;26.30;58.90;;;;;;7676907;22;83055;-56
2023/09/29 10:22:25;;;;;;;10.73;7.55;;;26.40;59.80;;;;;;7676898;22;81332;-52
2023/09/29 10:25:26;;;;;;;13.48;7.30;;;26.50;62.40;;;;;;7677701;22;80504;-60
2023/09/29 10:28:26;;;;;;;15.00;7.05;;;26.50;60.70;;;;;;7678222;22;80895;-60
2023/09/29 10:31:27;;;;;;;10.38;7.07;;;26.50;60.60;;;;;;7679329;22;80154;-59
2023/09/29 10:34:32;;;;;;;13.27;7.25;;;26.50;60.30;;;;;;7678531;22;80414;-59
2023/09/29 10:37:32;;;;;;;17.48;6.38;;;26.50;60.90;;;;;;7679942;22;81371;-60
2023/09/29 10:40:33;;;;;;;7.97;5.90;;;26.50;60.40;;;;;;7679023;22;80845;-59
2023/09/29 10:43:36;;;;;;;10.57;6.80;;;26.50;60.70;;;;;;7678861;22;79878;-59
2023/09/29 10:46:36;;;;;;;15.27;6.03;;;26.60;59.40;;;;;;7678416;22;80895;-57
2023/09/29 10:49:40;;;;;;;9.70;6.22;;;26.60;60.20;;;;;;7677314;22;80973;-58
2023/09/29 10:52:40;;;;;;;13.48;6.35;;;26.60;57.30;;;;;;7676692;22;81121;-58
2023/09/29 10:55:42;;;;;;;8.63;5.60;;;26.70;59.60;;;;;;7650323;22;83585;-57
2023/09/29 10:58:43;;;;;;;10.63;5.72;;;26.70;59.20;;;;;;7675293;22;80928;-58
2023/09/29 11:01:44;;;;;;;12.82;6.00;;;26.80;59.00;;;;;;7675827;22;80800;-60
2023/09/29 11:04:47;;;;;;;10.48;6.18;;;26.80;59.50;;;;;;7678711;22;80613;-59
2023/09/29 11:07:51;;;;;;;12.90;5.80;;;26.80;55.80;;;;;;7651067;22;81775;-60
2023/09/29 11:10:51;;;;;;;11.70;5.68;;;26.80;53.80;;;;;;7679784;22;80366;-60
2023/09/29 11:13:52;;;;;;;12.45;5.60;;;27.00;57.50;;;;;;7675997;22;80318;-60
2023/09/29 11:16:53;;;;;;;9.57;5.20;;;27.00;58.20;;;;;;7679755;22;80787;-61
2023/09/29 11:19:58;;;;;;;6.25;5.07;;;27.00;57.30;;;;;;7677087;22;80353;-60
2023/09/29 11:22:59;;;;;;;10.17;5.70;;;27.00;56.80;;;;;;7677145;22;81028;-57
2023/09/29 11:26:04;;;;;;;6.47;4.85;;;27.00;55.50;;;;;;7674525;22;81206;-58
2023/09/29 11:29:05;;;;;;;9.68;5.43;;;27.00;55.50;;;;;;7677728;22;85588;-57
2023/09/29 11:32:08;;;;;;;9.25;5.20;;;26.90;56.20;;;;;;7678587;22;80078;-58
2023/09/29 11:35:13;;;;;;;8.50;5.18;;;27.00;56.90;;;;;;7677410;22;80300;-58
2023/09/29 11:38:20;;;;;;;10.20;4.97;;;27.00;54.70;;;;;;7677953;22;80888;-61
2023/09/29 11:41:22;;;;;;;10.15;5.18;;;27.00;56.20;;;;;;7678592;22;80232;-58
2023/09/29 11:44:22;;;;;;;9.38;5.72;;;27.10;52.90;;;;;;7678219;22;80623;-58
2023/09/29 11:47:23;;;;;;;7.40;4.65;;;27.20;54.20;;;;;;7679037;22;80524;-58
2023/09/29 11:50:24;;;;;;;11.10;5.28;;;27.20;54.40;;;;;;7677975;22;80451;-58
2023/09/29 11:53:24;;;;;;;7.53;4.00;;;27.30;52.00;;;;;;7678119;22;80362;-60
2023/09/29 11:56:25;;;;;;;10.85;5.07;;;27.30;50.00;;;;;;7671440;22;81440;-59
2023/09/29 11:59:25;;;;;;;9.23;4.60;;;27.40;50.10;;;;;;7674607;22;80403;-58
2023/09/29 12:02:26;;;;;;;9.32;4.70;;;27.50;49.90;;;;;;7675397;22;80477;-62
2023/09/29 12:05:26;;;;;;;9.93;5.20;;;27.60;52.70;;;;;;7675500;22;80561;-61
2023/09/29 12:08:27;;;;;;;9.32;4.82;;;27.60;53.40;;;;;;7677331;22;80472;-58
2023/09/29 12:11:28;;;;;;;9.85;5.00;;;27.60;50.00;;;;;;7675607;22;80502;-60
2023/09/29 12:14:28;;;;;;;15.73;5.82;;;27.70;50.30;;;;;;7677411;22;80330;-60
2023/09/29 12:17:30;;;;;;;9.45;4.63;;;27.70;50.00;;;;;;7674094;22;80675;-61
2023/09/29 12:20:30;;;;;;;11.13;5.32;;;27.80;48.90;;;;;;7672188;22;80953;-60
2023/09/29 12:23:31;;;;;;;8.73;5.25;;;27.80;51.00;;;;;;7677490;22;80562;-62
2023/09/29 12:26:32;;;;;;;10.73;4.90;;;27.80;51.20;;;;;;7676962;22;81026;-62
2023/09/29 12:29:32;;;;;;;9.73;5.13;;;27.80;48.50;;;;;;7676706;22;80811;-59
2023/09/29 12:32:33;;;;;;;7.57;5.00;;;27.80;47.70;;;;;;7675139;22;80288;-61
2023/09/29 12:35:34;;;;;;;8.18;4.53;;;27.80;47.90;;;;;;7659660;22;80937;-53
2023/09/29 12:38:34;;;;;;;9.05;4.97;;;27.80;49.80;;;;;;7677549;22;80955;-52
2023/09/29 12:41:37;;;;;;;10.00;5.10;;;27.90;50.80;;;;;;7677258;22;80411;-54
2023/09/29 12:44:38;;;;;;;11.40;5.47;;;27.80;50.10;;;;;;7676703;22;80493;-50
2023/09/29 12:47:39;;;;;;;10.27;5.13;;;27.90;48.50;;;;;;7673385;22;80522;-50
2023/09/29 12:50:40;;;;;;;8.40;4.57;;;27.90;49.10;;;;;;7664533;22;81519;-49
2023/09/29 12:53:42;;;;;;;11.70;5.20;;;27.90;49.60;;;;;;7675393;22;80959;-63
2023/09/29 12:56:42;;;;;;;12.65;4.95;;;27.90;50.00;;;;;;7675391;22;80632;-62
2023/09/29 12:59:43;;;;;;;8.57;5.20;;;27.80;49.20;;;;;;7675347;22;81068;-61
2023/09/29 13:02:43;;;;;;;5.80;4.47;;;27.90;47.90;;;;;;7675860;22;80367;-63
2023/09/29 13:05:45;;;;;;;7.45;4.93;;;28.00;47.00;;;;;;7676562;22;80749;-64
2023/09/29 13:08:46;;;;;;;8.65;4.75;;;28.00;48.60;;;;;;7676559;22;81140;-65
2023/09/29 13:11:47;;;;;;;10.90;5.75;;;28.00;49.30;;;;;;7674863;22;80816;-63
2023/09/29 13:14:48;;;;;;;7.90;4.75;;;27.90;46.70;;;;;;7676879;22;80468;-62
2023/09/29 13:17:48;;;;;;;6.72;4.55;;;27.90;48.40;;;;;;7677306;22;80822;-62
2023/09/29 13:20:49;;;;;;;12.50;5.18;;;27.90;46.40;;;;;;7676969;22;80410;-62
2023/09/29 13:23:49;;;;;;;7.60;4.53;;;28.00;47.50;;;;;;7675249;22;81361;-63
2023/09/29 13:26:50;;;;;;;9.00;5.22;;;28.00;48.00;;;;;;7675523;22;80034;-63
2023/09/29 13:29:51;;;;;;;6.03;4.45;;;28.00;48.80;;;;;;7677262;22;81131;-47
2023/09/29 13:32:51;;;;;;;8.48;5.05;;;28.00;48.20;;;;;;7647632;22;81564;-56
2023/09/29 13:35:52;;;;;;;11.27;5.32;;;27.90;47.10;;;;;;7648971;22;81780;-55
2023/09/29 13:38:53;;;;;;;8.57;4.63;;;28.00;48.60;;;;;;7676676;22;80040;-54
2023/09/29 13:41:53;;;;;;;8.77;5.18;;;27.90;47.60;;;;;;7675678;22;80617;-56
2023/09/29 13:44:55;;;;;;;6.18;4.53;;;27.90;46.30;;;;;;7676002;22;81158;-52
2023/09/29 13:47:55;;;;;;;9.95;5.53;;;27.90;46.00;;;;;;7675072;22;80328;-53
2023/09/29 13:50:58;;;;;;;10.02;5.07;;;27.90;47.30;;;;;;7675519;22;80832;-46
2023/09/29 13:53:58;;;;;;;6.65;4.07;;;27.90;46.60;;;;;;7675267;22;80376;-50
2023/09/29 13:56:59;;;;;;;14.10;5.47;;;27.90;46.80;;;;;;7678825;22;80694;-49
2023/09/29 14:00:00;;;;;;;7.88;5.00;;;27.80;47.20;;;;;;7679947;22;80301;-52
2023/09/29 14:03:01;;;;;;;10.82;5.18;;;27.80;47.70;;;;;;7679636;22;80681;-47
2023/09/29 14:06:02;;;;;;;13.15;5.20;;;27.80;47.10;;;;;;7680010;22;80845;-51
2023/09/29 14:09:03;;;;;;;7.85;4.80;;;27.80;47.40;;;;;;7679919;22;80543;-58
2023/09/29 14:12:04;;;;;;;10.57;5.15;;;27.80;46.70;;;;;;7678143;22;80789;-61
2023/09/29 14:15:05;;;;;;;10.93;5.03;;;27.80;47.80;;;;;;7678920;22;80191;-61
2023/09/29 14:18:05;;;;;;;7.30;5.03;;;27.80;47.40;;;;;;7680205;22;80467;-62
2023/09/29 14:21:06;;;;;;;6.60;4.95;;;27.80;47.90;;;;;;7679513;22;80481;-61
2023/09/29 14:24:07;;;;;;;8.20;5.00;;;27.70;48.20;;;;;;7679288;22;80363;-52
2023/09/29 14:27:09;;;;;;;11.98;5.45;;;27.70;48.30;;;;;;7676101;22;80564;-51
2023/09/29 14:30:09;;;;;;;9.70;5.30;;;27.70;48.10;;;;;;7675968;22;80192;-47
2023/09/29 14:33:10;;;;;;;15.23;5.13;;;27.70;48.10;;;;;;7677295;22;80520;-48
2023/09/29 14:36:11;;;;;;;13.35;5.50;;;27.60;48.00;;;;;;7678404;22;80810;-48
2023/09/29 14:39:11;;;;;;;11.73;5.40;;;27.60;47.60;;;;;;7679284;22;81255;-50
2023/09/29 14:42:12;;;;;;;6.53;4.70;;;27.70;47.70;;;;;;7663505;22;81213;-60
2023/09/29 14:45:12;;;;;;;8.65;4.47;;;27.60;47.80;;;;;;7675959;22;81040;-64
2023/09/29 14:48:13;;;;;;;11.52;4.40;;;27.60;48.00;;;;;;7673705;22;81104;-62
2023/09/29 14:51:13;;;;;;;9.38;5.30;;;27.60;48.20;;;;;;7673223;22;80231;-62
2023/09/29 14:54:14;;;;;;;11.38;5.38;;;27.60;47.30;;;;;;7675960;22;80706;-63
2023/09/29 14:57:15;;;;;;;9.88;4.88;;;27.50;48.10;;;;;;7678040;22;80547;-61
2023/09/29 15:00:17;;;;;;;6.78;4.90;;;27.50;47.90;;;;;;7677887;22;80186;-57
2023/09/29 15:03:17;;;;;;;11.07;4.80;;;27.50;48.10;;;;;;7678496;22;80709;-57
2023/09/29 15:06:18;;;;;;;6.65;4.32;;;27.50;46.70;;;;;;7678657;22;80685;-54
2023/09/29 15:09:18;;;;;;;8.75;5.20;;;27.40;46.40;;;;;;7650618;22;84386;-58
2023/09/29 15:12:19;;;;;;;10.05;6.10;;;27.40;47.90;;;;;;7678088;22;80565;-57
2023/09/29 15:15:20;;;;;;;14.13;6.55;;;27.40;48.60;;;;;;7677047;22;80694;-57
2023/09/29 15:18:21;;;;;;;10.32;5.35;;;27.40;48.50;;;;;;7647199;22;83610;-56
2023/09/29 15:21:21;;;;;;;14.05;6.28;;;27.30;48.90;;;;;;7675861;22;80718;-57
2023/09/29 15:24:22;;;;;;;11.30;5.47;;;27.30;49.10;;;;;;7680011;22;81169;-55
2023/09/29 15:27:23;;;;;;;14.45;7.35;;;27.30;49.70;;;;;;7680067;22;80645;-57
2023/09/29 15:30:23;;;;;;;11.07;5.90;;;27.30;49.60;;;;;;7679480;22;80236;-55